UNNT

Novosibirsk/Tolmachevo

Airport
ICAO code
UNNT
Summary
ICAO Region
EUR
ICAO Territory
Location

Ob, Siberia,

Coordinates
55° 0' 45" N , 82° 39' 3" E
KCC
Metar
Observation
UNNT 010930Z 32002MPS 9999 BKN048 M16/M21 Q1040 R25/810160 R34/////// NOSIG RMK QFE770/1027
Station
TOLMACHEVO
Date/Time
2022-12-01 09:30:00
Wind direction
320°
Lowest cloud amount
broken clouds
Temperature
-16°C
Dew point
-21°C
Humidity
65%
QNH
1040 hPa
Weather condition
n/a

Description

Novosibirsk Tolmachevo Airport is situated in the town of Ob, 16 km from the center of Novosibirsk, an industrial and scientific center in Siberia, Russia.

Climatology

Humid Continental climate (Köppen climate classification Dfb) - Variable weather patterns and a large seasonal temperature variance. Summers are often warm and humid with frequent thunderstorms and winters can be very cold with frequent snowfall and persistent snow cover.

Runways

Designator Length Width Surface Rops
16/34 1097 14 paved Yes/Yes
7/25 3600 60 ASP Yes/Yes

Airport map

Aerial View

SKYbrary Partners:

Safety knowledge contributed by: